KVNY/VNY METAR and TAF weather

Enter ICAO airport designator
Station Type Date Time Source
KVNY METAR 2019/08/25 12:51 UTC NOAA

KVNY 251251Z 35003KT 10SM CLR 20/16 A2997 RMK AO2 SLP139 T02000156


Station Type Date Time Source
KVNY Decoded METAR 2019/08/25 12:51 UTC NOAA

Station name not available
Aug 25, 2019 - 08:51 AM EDT / 2019.08.25 1251 UTC
Wind: from the N (350 degrees) at 3 MPH (3 KT):0
Visibility: 10 mile(s):0
Sky conditions: clear
Temperature: 68.0 F (20.0 C)
Dew Point: 60.1 F (15.6 C)
Relative Humidity: 75%
Pressure (altimeter): 29.97 in. Hg (1014 hPa)
ob: KVNY 251251Z 35003KT 10SM CLR 20/16 A2997 RMK AO2 SLP139 T02000156
cycle: 13

Station Type Date Time Source
KVNY TAF 2019/08/25 12:36 UTC NOAA

TAF KVNY 251133Z 2512/2612 VRB03KT P6SM SKC
FM252100 14008KT P6SM SKC
FM260300 VRB03KT P6SM SKC

Example: see airport list